Latest Weather Observations for Cooktown

IDQ60801

Issued at 8:21 am EST Wednesday 23 October 2019 (issued every 10 minutes, with the page automatically refreshed every 10 minutes)

About weather observations | Map of weather stations | Latest weather observations for QLD | Other Formats
Station Details ID: 031209 Name: COOKTOWN AIRPORT Lat: -15.45 Lon: 145.19 Height: 4.8 m
Data from the previous 72 hours. | See also: Recent months at Cooktown
Date/Time
EST
Temp
°C
App
Temp
°C
Dew
Point
°C
Rel
Hum
%
Delta-T
°C
Wind Press
QNH
hPa
Press
MSL
hPa
Rain since
9am
mm
Dir  Spd
km/h
Gust
km/h
Spd
kts
Gust
kts
23/08:00am 25.7 24.3 17.9 62 4.9 SE 22 32 12 17 1017.2 1017.2 0.8
23/07:30am 25.7 24.6 18.6 65 4.5 SE 22 37 12 20 1016.7 1016.7 0.8
23/07:00am 25.3 24.4 18.2 64 4.5 ESE 20 33 11 18 1016.2 1016.2 0.8
23/06:30am 24.8 22.5 17.5 64 4.6 ESE 26 44 14 24 1015.8 1015.8 0.8
23/06:00am 24.6 21.7 17.1 63 4.6 ESE 28 48 15 26 1015.6 1015.6 0.8
23/05:57am 24.7 21.7 16.9 62 4.8 ESE 28 48 15 26 1015.6 1015.6 0.8
23/05:30am 24.4 21.5 17.1 63 4.5 ESE 28 35 15 19 1015.3 1015.3 0.8
23/05:12am 24.5 21.5 16.7 61 4.8 ESE 28 48 15 26 1015.2 1015.2 0.8
23/05:00am 24.4 22.0 17.4 65 4.3 ESE 26 41 14 22 1015.1 1015.1 0.8
23/04:30am 24.4 21.6 18.1 68 4.0 ESE 30 43 16 23 1014.8 1014.8 0.8
23/04:00am 24.3 21.8 18.0 68 3.9 ESE 28 41 15 22 1014.6 1014.6 0.8
23/03:30am 24.4 22.6 18.8 71 3.6 ESE 26 39 14 21 1014.4 1014.4 0.8
23/03:00am 24.3 22.2 18.9 72 3.4 ESE 28 44 15 24 1014.5 1014.5 0.8
23/02:30am 24.3 22.8 19.4 74 3.1 ESE 26 37 14 20 1014.5 1014.5 0.8
23/02:00am 24.5 23.5 19.6 74 3.1 ESE 24 37 13 20 1014.8 1014.8 0.8
23/01:30am 24.5 22.9 20.0 76 2.9 ESE 28 37 15 20 1015.1 1015.1 0.8
23/01:00am 24.1 23.4 19.6 76 2.9 ESE 22 33 12 18 1015.3 1015.3 0.8
23/12:30am 24.0 23.1 19.9 78 2.6 ESE 24 35 13 19 1015.6 1015.6 0.8
23/12:00am 24.9 24.6 20.4 76 2.9 ESE 22 32 12 17 1015.8 1015.8 0.6
 
Date/Time
EST
Temp
°C
App
Temp
°C
Dew
Point
°C
Rel
Hum
%
Delta-T
°C
Wind Press
QNH
hPa
Press
MSL
hPa
Rain since
9am
mm
Dir  Spd
km/h
Gust
km/h
Spd
kts
Gust
kts
22/11:30pm 24.8 24.1 20.3 76 2.9 ESE 24 35 13 19 1016.1 1016.1 0.6
22/11:00pm 24.6 23.1 20.3 77 2.8 ESE 28 39 15 21 1016.3 1016.3 0.6
22/10:30pm 24.1 24.6 20.8 82 2.2 ESE 19 33 10 18 1016.5 1016.5 0.6
22/10:20pm 23.7 24.9 21.4 87 1.5 SE 17 26 9 14 1016.5 1016.5 0.6
22/10:00pm 23.8 24.9 21.3 86 1.6 SE 17 30 9 16 1016.5 1016.5 0.6
22/09:30pm 24.4 24.8 20.9 81 2.3 ESE 20 30 11 16 1016.4 1016.4 0.0
22/09:00pm 25.3 26.2 20.8 76 3.0 SE 17 26 9 14 1016.2 1016.2 0.0
22/08:30pm 25.5 25.0 19.9 71 3.6 ESE 22 35 12 19 1016.0 1016.0 0.0
22/08:00pm 25.6 25.0 20.4 73 3.4 ESE 24 39 13 21 1015.7 1015.7 0.0
22/07:30pm 24.8 25.2 20.7 78 2.7 SE 19 32 10 17 1015.8 1015.8 0.0
22/07:00pm 25.7 25.4 20.3 72 3.5 ESE 22 35 12 19 1015.3 1015.3 0.0
22/06:30pm 25.8 24.9 19.9 70 3.8 ESE 24 35 13 19 1014.9 1014.9 0.0
22/06:00pm 26.1 25.8 19.5 67 4.3 ESE 20 30 11 16 1014.6 1014.6 0.0
22/05:30pm 26.5 25.7 20.1 68 4.2 SE 24 39 13 21 1014.3 1014.3 0.0
22/05:00pm 26.6 24.8 19.5 65 4.6 SE 28 43 15 23 1014.0 1014.0 0.0
22/04:30pm 26.6 24.4 19.5 65 4.6 ESE 30 43 16 23 1013.8 1013.8 0.0
22/04:00pm 27.9 26.2 19.9 61 5.2 ESE 28 41 15 22 1013.5 1013.5 0.0
22/03:30pm 27.5 25.0 18.8 59 5.6 SE 30 50 16 27 1013.6 1013.6 0.0
22/03:19pm 28.8 26.1 19.7 58 5.9 SE 33 52 18 28 1013.6 1013.6 0.0
22/03:15pm 27.9 25.0 18.9 58 5.8 SE 32 52 17 28 1013.7 1013.7 0.0
22/03:00pm 28.4 25.6 19.1 57 6.0 ESE 32 46 17 25 1013.7 1013.7 0.0
22/02:32pm 29.0 27.2 19.6 57 6.1 ESE 28 46 15 25 1013.7 1013.7 0.0
22/02:30pm 28.5 26.1 19.2 57 6.0 ESE 30 46 16 25 1013.7 1013.7 0.0
22/02:08pm 28.8 26.8 19.1 55 6.3 SE 28 46 15 25 1013.6 1013.6 0.0
22/02:00pm 28.8 25.9 18.9 55 6.4 ESE 32 48 17 26 1013.7 1013.7 0.0
22/01:30pm 29.4 26.8 19.4 55 6.5 ESE 32 52 17 28 1013.9 1013.9 0.0
22/01:06pm 28.7 26.0 19.3 56 6.1 SE 32 50 17 27 1014.3 1014.3 0.0
22/01:00pm 29.0 26.0 19.0 54 6.5 ESE 33 50 18 27 1014.4 1014.4 0.0
22/12:30pm 29.8 27.3 18.9 52 7.1 ESE 30 48 16 26 1014.9 1014.9 0.0
22/12:24pm 29.0 26.3 18.4 52 6.8 SE 30 48 16 26 1014.9 1014.9 0.0
22/12:00pm 29.7 27.7 20.0 56 6.4 SE 30 44 16 24 1015.2 1015.2 0.0
22/11:30am 30.0 26.4 19.4 53 6.9 ESE 37 56 20 30 1015.6 1015.6 0.0
22/11:07am 28.3 25.3 19.0 57 6.0 ESE 33 54 18 29 1015.9 1015.9 0.0
22/11:00am 28.9 26.4 19.8 58 5.9 ESE 32 46 17 25 1015.9 1015.9 0.0
22/10:43am 28.1 24.5 18.5 56 6.1 ESE 35 54 19 29 1016.1 1016.1 0.0
22/10:30am 29.0 26.1 19.3 55 6.3 ESE 33 44 18 24 1016.2 1016.2 0.0
22/10:00am 28.3 24.5 18.1 54 6.5 ESE 35 44 19 24 1016.6 1016.6 0.0
22/09:30am 28.4 25.7 19.3 57 5.9 ESE 32 50 17 27 1016.8 1016.8 0.0
22/09:23am 28.4 25.7 19.3 57 5.9 ESE 32 50 17 27 1016.7 1016.7 0.0
22/09:00am 27.7 25.2 19.8 62 5.1 E 32 46 17 25 1016.6 1016.6 0.0
22/08:30am 27.7 24.9 19.5 61 5.3 ESE 33 46 18 25 1016.4 1016.4 0.0
22/08:00am 27.4 24.9 19.7 63 5.0 ESE 32 41 17 22 1016.2 1016.2 0.0
22/07:30am 26.3 23.9 19.2 65 4.6 ESE 30 43 16 23 1015.9 1015.9 0.0
22/07:00am 26.4 23.5 19.3 65 4.6 ESE 33 48 18 26 1015.6 1015.6 0.0
22/06:41am 25.9 22.9 18.6 64 4.6 ESE 32 50 17 27 1015.3 1015.3 0.0
22/06:30am 25.2 23.4 19.6 71 3.6 ESE 28 41 15 22 1015.2 1015.2 0.0
22/06:00am 25.1 24.0 19.5 71 3.6 ESE 24 39 13 21 1014.9 1014.9 0.0
22/05:30am 25.0 23.6 19.6 72 3.5 ESE 26 39 14 21 1014.6 1014.6 0.0
22/05:00am 25.1 24.2 19.9 73 3.4 ESE 24 39 13 21 1014.4 1014.4 0.0
22/04:30am 25.1 23.7 19.7 72 3.5 ESE 26 39 14 21 1014.2 1014.2 0.0
22/04:00am 24.9 23.3 19.1 70 3.7 ESE 26 39 14 21 1013.9 1013.9 0.0
22/03:30am 24.9 23.8 19.5 72 3.5 ESE 24 33 13 18 1013.9 1013.9 0.0
22/03:00am 24.9 25.1 19.3 71 3.6 ESE 17 24 9 13 1014.1 1014.1 0.0
22/02:30am 25.1 23.7 18.8 68 4.0 ESE 24 43 13 23 1014.3 1014.3 0.0
22/02:00am 25.1 22.4 18.5 67 4.2 ESE 30 41 16 22 1014.6 1014.6 0.0
22/01:30am 25.2 23.8 18.9 68 4.0 ESE 24 37 13 20 1014.9 1014.9 0.0
22/01:00am 25.1 24.6 19.0 69 3.9 ESE 20 33 11 18 1015.2 1015.2 0.0
22/12:30am 25.0 23.9 18.7 68 4.0 ESE 22 35 12 19 1015.6 1015.6 0.0
22/12:00am 25.1 24.6 19.2 70 3.8 ESE 20 32 11 17 1015.9 1015.9 0.0
 
Date/Time
EST
Temp
°C
App
Temp
°C
Dew
Point
°C
Rel
Hum
%
Delta-T
°C
Wind Press
QNH
hPa
Press
MSL
hPa
Rain since
9am
mm
Dir  Spd
km/h
Gust
km/h
Spd
kts
Gust
kts
21/11:30pm 25.2 24.3 19.8 72 3.5 ESE 24 43 13 23 1016.1 1016.1 0.0
21/11:00pm 25.3 24.5 19.2 69 3.9 ESE 22 39 12 21 1016.2 1016.2 0.0
21/10:30pm 25.6 25.0 19.7 70 3.8 ESE 22 35 12 19 1016.4 1016.4 0.0
21/10:00pm 25.6 24.9 19.5 69 3.9 ESE 22 39 12 21 1016.3 1016.3 0.0
21/09:30pm 25.5 24.6 19.9 71 3.6 ESE 24 39 13 21 1015.9 1015.9 0.0
21/09:00pm 25.5 25.4 19.9 71 3.6 ESE 20 33 11 18 1015.8 1015.8 0.0
21/08:30pm 25.5 25.4 19.9 71 3.6 ESE 20 32 11 17 1015.7 1015.7 0.0
21/08:00pm 25.4 25.2 19.8 71 3.6 ESE 20 30 11 16 1015.4 1015.4 0.0
21/07:30pm 25.5 25.2 19.6 70 3.8 ESE 20 30 11 16 1015.2 1015.2 0.0
21/07:00pm 25.4 25.8 19.8 71 3.6 ESE 17 28 9 15 1015.0 1015.0 0.0
21/06:30pm 25.6 25.3 19.5 69 3.9 ESE 20 30 11 16 1014.7 1014.7 0.0
21/06:00pm 25.8 25.1 19.4 67 4.1 ESE 22 30 12 16 1014.4 1014.4 0.0
21/05:30pm 26.4 25.3 19.5 66 4.5 ESE 24 41 13 22 1014.0 1014.0 0.0
21/05:00pm 27.9 27.4 20.7 65 4.8 SE 24 35 13 19 1013.6 1013.6 0.0
21/04:30pm 27.9 27.4 19.9 61 5.2 SE 22 35 12 19 1013.4 1013.4 0.0
21/04:00pm 27.5 26.1 19.6 62 5.1 SE 26 39 14 21 1013.2 1013.2 0.0
21/03:30pm 28.5 27.4 19.4 57 5.9 ESE 24 35 13 19 1013.1 1013.1 0.0
21/03:00pm 28.8 27.1 19.7 58 5.9 ESE 28 39 15 21 1013.2 1013.2 0.0
21/02:30pm 29.2 27.1 19.8 57 6.2 ESE 30 43 16 23 1013.3 1013.3 0.0
21/02:17pm 27.5 25.7 19.6 62 5.1 ESE 28 46 15 25 1013.4 1013.4 0.0
21/02:00pm 29.0 27.5 20.2 59 5.8 ESE 28 39 15 21 1013.5 1013.5 0.0
21/01:30pm 28.5 26.0 19.7 59 5.7 ESE 32 41 17 22 1013.8 1013.8 0.0
21/01:01pm 27.2 26.6 21.9 73 3.6 ESE 28 48 15 26 1014.2 1014.2 0.0
21/01:00pm 26.8 26.1 21.1 71 3.8 ESE 26 48 14 26 1014.2 1014.2 0.0
21/12:55pm 26.6 24.9 19.7 66 4.5 ESE 28 48 15 26 1014.2 1014.2 0.0
21/12:30pm 29.2 27.7 20.9 61 5.5 ESE 30 39 16 21 1014.5 1014.5 0.0
21/12:00pm 29.1 29.6 21.1 62 5.3 SE 20 32 11 17 1014.9 1014.9 0.0
21/11:30am 28.6 27.8 20.1 60 5.6 SE 24 35 13 19 1015.2 1015.2 0.0
21/11:00am 28.9 28.1 19.2 55 6.3 SE 22 32 12 17 1015.2 1015.2 0.0
21/10:30am 28.8 27.5 19.1 55 6.3 ESE 24 33 13 18 1015.4 1015.4 0.0
21/10:00am 28.1 26.6 18.5 56 6.1 ESE 24 41 13 22 1015.7 1015.7 0.0
21/09:30am 29.4 27.0 19.1 54 6.7 E 30 37 16 20 1015.7 1015.7 0.0
21/09:00am 28.6 27.0 19.2 56 6.1 ESE 26 39 14 21 1015.9 1015.9 0.0
21/08:30am 27.9 26.2 18.0 55 6.3 ESE 24 32 13 17 1015.7 1015.7 0.0
21/08:00am 27.5 26.1 19.6 62 5.1 ESE 26 35 14 19 1015.3 1015.3 0.0
21/07:30am 25.7 25.5 19.8 70 3.8 ESE 20 32 11 17 1014.9 1014.9 0.0
21/07:00am 25.2 26.1 20.0 73 3.4 ESE 15 22 8 12 1014.5 1014.5 0.0
21/06:30am 24.6 26.0 20.3 77 2.8 ESE 13 24 7 13 1014.3 1014.3 0.0
21/06:00am 23.7 24.6 19.2 76 2.9 ESE 13 20 7 11 1014.1 1014.1 0.0
21/05:30am 23.6 25.3 19.3 77 2.7 ESE 9 13 5 7 1013.8 1013.8 0.0
21/05:00am 24.0 25.1 19.7 77 2.8 ESE 13 26 7 14 1013.4 1013.4 0.0
21/04:30am 23.8 25.1 19.3 76 2.9 ESE 11 17 6 9 1013.1 1013.1 0.0
21/04:00am 23.9 25.0 19.6 77 2.8 ESE 13 19 7 10 1013.0 1013.0 0.0
21/03:30am 23.9 25.3 19.6 77 2.8 SE 11 19 6 10 1012.9 1012.9 0.0
21/03:00am 24.0 25.1 19.7 77 2.8 ESE 13 22 7 12 1013.0 1013.0 0.0
21/02:30am 23.9 25.1 19.8 78 2.6 ESE 13 20 7 11 1013.0 1013.0 0.0
21/02:00am 23.5 25.3 19.6 79 2.5 ESE 9 13 5 7 1013.3 1013.3 0.0
21/01:30am 24.0 24.7 19.7 77 2.8 E 15 19 8 10 1013.6 1013.6 0.0
21/01:00am 24.2 25.2 20.3 79 2.5 E 15 22 8 12 1013.9 1013.9 0.0
21/12:30am 23.4 25.8 20.0 81 2.2 ESE 7 15 4 8 1014.2 1014.2 0.0
21/12:00am 23.7 25.6 19.8 79 2.5 ESE 9 13 5 7 1014.4 1014.4 0.0
 
Date/Time
EST
Temp
°C
App
Temp
°C
Dew
Point
°C
Rel
Hum
%
Delta-T
°C
Wind Press
QNH
hPa
Press
MSL
hPa
Rain since
9am
mm
Dir  Spd
km/h
Gust
km/h
Spd
kts
Gust
kts
20/11:30pm 23.7 25.7 20.0 80 2.4 ESE 9 11 5 6 1014.8 1014.8 0.0
20/11:00pm 24.1 24.7 19.4 75 3.0 ESE 15 24 8 13 1014.9 1014.9 0.0
20/10:30pm 24.4 25.7 20.1 77 2.8 ESE 13 17 7 9 1014.9 1014.9 0.0
20/10:00pm 24.4 25.7 20.1 77 2.8 ESE 13 19 7 10 1014.8 1014.8 0.0
20/09:30pm 24.7 26.1 20.4 77 2.8 ESE 13 19 7 10 1014.5 1014.5 0.0
20/09:00pm 24.8 25.8 20.3 76 2.9 E 15 22 8 12 1014.3 1014.3 0.0
20/08:30pm 24.6 26.1 20.5 78 2.7 E 13 19 7 10 1014.0 1014.0 0.0
20/08:00pm 24.7 26.2 20.6 78 2.7 E 13 19 7 10 1013.6 1013.6 0.0
20/07:30pm 24.3 26.6 20.6 80 2.4 E 9 15 5 8 1013.3 1013.3 0.0
20/07:00pm 24.3 26.5 20.4 79 2.5 ENE 9 13 5 7 1012.9 1012.9 0.0
20/06:30pm 24.5 25.8 20.2 77 2.8 E 13 17 7 9 1012.4 1012.4 0.0
20/06:00pm 25.4 26.6 20.0 72 3.5 E 13 20 7 11 1012.2 1012.2 0.0
20/05:30pm 26.2 26.3 20.3 70 3.9 E 20 28 11 15 1011.9 1011.9 0.0
20/05:00pm 26.7 25.9 20.1 67 4.3 E 24 35 13 19 1011.6 1011.6 0.0
20/04:30pm 27.4 26.2 20.0 64 4.8 E 26 33 14 18 1011.7 1011.7 0.0
20/04:00pm 28.1 26.9 20.1 62 5.2 E 26 33 14 18 1011.7 1011.7 0.0
20/03:30pm 28.3 27.2 19.5 59 5.7 E 24 33 13 18 1012.0 1012.0 0.0
20/03:00pm 28.9 27.8 19.5 57 6.1 E 24 35 13 19 1012.3 1012.3 0.0
20/02:30pm 29.4 28.1 19.1 54 6.7 E 24 33 13 18 1012.4 1012.4 0.0
20/02:00pm 28.8 27.1 18.9 55 6.4 E 26 33 14 18 1012.7 1012.7 0.0
20/01:30pm 29.5 28.4 18.6 52 7.0 E 22 32 12 17 1013.0 1013.0 0.0
20/01:00pm 29.1 28.4 19.4 55 6.3 E 22 32 12 17 1013.4 1013.4 0.0
20/12:30pm 28.8 28.2 18.9 55 6.4 E 20 35 11 19 1013.9 1013.9 0.0
20/12:00pm 29.0 28.7 19.6 57 6.1 ENE 20 30 11 16 1014.5 1014.5 0.0
20/11:30am 28.9 28.4 19.2 55 6.3 ENE 20 28 11 15 1014.9 1014.9 0.0
20/11:00am 28.8 28.6 19.7 58 5.9 ENE 20 28 11 15 1015.4 1015.4 0.0
20/10:30am 29.1 28.9 19.4 55 6.3 ENE 19 30 10 16 1015.7 1015.7 0.0
20/10:00am 29.1 29.2 20.0 58 6.0 ENE 19 26 10 14 1016.0 1016.0 0.0
20/09:30am 28.9 30.6 20.1 59 5.8 E 11 20 6 11 1016.3 1016.3 0.0
20/09:00am 27.3 27.7 19.9 64 4.8 ESE 17 24 9 13 1016.4 1016.4 0.0
20/08:30am 27.3 29.7 20.9 68 4.2 E 9 17 5 9 1016.5 1016.5 0.0

Other formats

Comma delimited format used in spreadsheet applications
http://www.bom.gov.au/fwo/IDQ60801/IDQ60801.95283.axf

JavaScript Object Notation format (JSON) in row-major order
http://www.bom.gov.au/fwo/IDQ60801/IDQ60801.95283.json

Data quality

Most of these data are generated automatically and are frequently updated. Quality checks on data are not normally performed. It is possible for incorrect values to appear. Refer to information at About Latest Weather Observations and please check the disclaimer before using these data.